LKY13 YBSU-YBCG
Flight info
| Callsign | LKY13 |
|---|---|
| Flight time | 0h 23m |
| Altitude | 15000 |
| Route | SU Q35 MUDDL DCT IDRIL DCT NOPAS DCT GOMOL |
| Aircraft | B736/M-SDE2E3FGHIRWXY/LB1 |
Departure
| Time | 2026-04-30 00:39 |
|---|---|
| Airport | Sunshine Coast Airport (YBSU) |
Arrival
| Time | 2026-04-30 01:03 |
|---|---|
| Airport | Gold Coast Airport (YBCG) |
| Time | Latitude | Longitude | Altitude | Speed | Heading |
|---|---|---|---|---|---|
| 2026-04-30 00:19 | -26.59983 | 153.08331 | 23 ft | 0 kts | 225° |
| 2026-04-30 00:28 | -26.59979 | 153.08335 | 23 ft | 2 kts | 225° |
| 2026-04-30 00:28 | -26.59968 | 153.08348 | 27 ft | 2 kts | 225° |
| 2026-04-30 00:28 | -26.59957 | 153.08360 | 24 ft | 2 kts | 225° |
| 2026-04-30 00:28 | -26.59945 | 153.08373 | 26 ft | 2 kts | 225° |
| 2026-04-30 00:29 | -26.59935 | 153.08385 | 27 ft | 0 kts | 225° |
| 2026-04-30 00:35 | -26.59936 | 153.08381 | 27 ft | 1 kts | 247° |
| 2026-04-30 00:35 | -26.59932 | 153.08374 | 27 ft | 1 kts | 303° |
| 2026-04-30 00:35 | -26.59913 | 153.08359 | 24 ft | 9 kts | 321° |
| 2026-04-30 00:35 | -26.59812 | 153.08313 | 24 ft | 23 kts | 353° |
| 2026-04-30 00:36 | -26.59631 | 153.08211 | 25 ft | 36 kts | 323° |
| 2026-04-30 00:36 | -26.59479 | 153.08157 | 23 ft | 18 kts | 21° |
| 2026-04-30 00:36 | -26.59368 | 153.08238 | 22 ft | 23 kts | 50° |
| 2026-04-30 00:36 | -26.59276 | 153.08268 | 22 ft | 10 kts | 315° |
| 2026-04-30 00:37 | -26.59179 | 153.08184 | 21 ft | 27 kts | 324° |
| 2026-04-30 00:37 | -26.58976 | 153.08018 | 23 ft | 45 kts | 322° |
| 2026-04-30 00:37 | -26.58689 | 153.07774 | 25 ft | 59 kts | 323° |
| 2026-04-30 00:37 | -26.58447 | 153.07531 | 24 ft | 34 kts | 285° |
| 2026-04-30 00:38 | -26.58343 | 153.07462 | 22 ft | 11 kts | 73° |
| 2026-04-30 00:38 | -26.58357 | 153.07496 | 22 ft | 1 kts | 147° |
| 2026-04-30 00:38 | -26.58362 | 153.07500 | 23 ft | 1 kts | 147° |
| 2026-04-30 00:38 | -26.58368 | 153.07504 | 23 ft | 2 kts | 147° |
| 2026-04-30 00:39 | -26.58506 | 153.07622 | 23 ft | 55 kts | 140° |
| 2026-04-30 00:39 | -26.59034 | 153.08075 | 46 ft | 134 kts | 142° |
| 2026-04-30 00:39 | -26.59818 | 153.08782 | 742 ft | 151 kts | 145° |
| 2026-04-30 00:39 | -26.60620 | 153.09464 | 2017 ft | 139 kts | 141° |
| 2026-04-30 00:40 | -26.61399 | 153.10122 | 2932 ft | 151 kts | 141° |
| 2026-04-30 00:40 | -26.62348 | 153.10930 | 3321 ft | 192 kts | 141° |
| 2026-04-30 00:40 | -26.63503 | 153.11911 | 3776 ft | 218 kts | 141° |
| 2026-04-30 00:40 | -26.64715 | 153.13041 | 4432 ft | 238 kts | 133° |
| 2026-04-30 00:41 | -26.65840 | 153.14444 | 5533 ft | 241 kts | 129° |
| 2026-04-30 00:41 | -26.66936 | 153.15892 | 6666 ft | 249 kts | 129° |
| 2026-04-30 00:41 | -26.68051 | 153.17369 | 7649 ft | 256 kts | 129° |
| 2026-04-30 00:41 | -26.69223 | 153.18913 | 8638 ft | 263 kts | 129° |
| 2026-04-30 00:42 | -26.70422 | 153.20483 | 9645 ft | 270 kts | 129° |
| 2026-04-30 00:42 | -26.71657 | 153.22094 | 10621 ft | 277 kts | 129° |
| 2026-04-30 00:42 | -26.72965 | 153.23796 | 11103 ft | 302 kts | 130° |
| 2026-04-30 00:42 | -26.74400 | 153.25660 | 11348 ft | 331 kts | 130° |
| 2026-04-30 00:43 | -26.75963 | 153.27688 | 11597 ft | 356 kts | 130° |
| 2026-04-30 00:43 | -26.77606 | 153.29818 | 12268 ft | 366 kts | 130° |
| 2026-04-30 00:43 | -26.79293 | 153.32004 | 12935 ft | 375 kts | 130° |
| 2026-04-30 00:43 | -26.81079 | 153.34173 | 13645 ft | 383 kts | 139° |
| 2026-04-30 00:44 | -26.83358 | 153.35672 | 14285 ft | 391 kts | 159° |
| 2026-04-30 00:44 | -26.86031 | 153.36294 | 14838 ft | 396 kts | 177° |
| 2026-04-30 00:44 | -26.88799 | 153.36278 | 15011 ft | 405 kts | 181° |
| 2026-04-30 00:44 | -26.91644 | 153.36160 | 15006 ft | 410 kts | 182° |
| 2026-04-30 00:45 | -26.94511 | 153.36019 | 15007 ft | 412 kts | 181° |
| 2026-04-30 00:45 | -26.97389 | 153.35885 | 14991 ft | 416 kts | 181° |
| 2026-04-30 00:45 | -27.00263 | 153.35767 | 14984 ft | 413 kts | 181° |
| 2026-04-30 00:45 | -27.03141 | 153.35663 | 14996 ft | 412 kts | 181° |
| 2026-04-30 00:46 | -27.06006 | 153.35569 | 15000 ft | 412 kts | 180° |
| 2026-04-30 00:46 | -27.08840 | 153.35480 | 14995 ft | 413 kts | 180° |
| 2026-04-30 00:46 | -27.11706 | 153.35391 | 14998 ft | 413 kts | 180° |
| 2026-04-30 00:46 | -27.14587 | 153.35302 | 15004 ft | 413 kts | 180° |
| 2026-04-30 00:47 | -27.17457 | 153.35214 | 15022 ft | 413 kts | 180° |
| 2026-04-30 00:47 | -27.20338 | 153.35124 | 15048 ft | 414 kts | 180° |
| 2026-04-30 00:47 | -27.23217 | 153.35034 | 15048 ft | 412 kts | 180° |
| 2026-04-30 00:47 | -27.26099 | 153.34944 | 15282 ft | 415 kts | 180° |
| 2026-04-30 00:48 | -27.28987 | 153.34854 | 15277 ft | 414 kts | 180° |
| 2026-04-30 00:48 | -27.31810 | 153.34764 | 14611 ft | 411 kts | 180° |
| 2026-04-30 00:48 | -27.34642 | 153.34782 | 13962 ft | 403 kts | 174° |
| 2026-04-30 00:48 | -27.37373 | 153.35396 | 13274 ft | 394 kts | 162° |
| 2026-04-30 00:49 | -27.39903 | 153.36504 | 12473 ft | 387 kts | 151° |
| 2026-04-30 00:49 | -27.42198 | 153.38016 | 11709 ft | 380 kts | 146° |
| 2026-04-30 00:49 | -27.44394 | 153.39573 | 11371 ft | 364 kts | 146° |
| 2026-04-30 00:49 | -27.46487 | 153.41063 | 11150 ft | 347 kts | 146° |
| 2026-04-30 00:50 | -27.48481 | 153.42478 | 10993 ft | 331 kts | 146° |
| 2026-04-30 00:50 | -27.50389 | 153.43823 | 10845 ft | 316 kts | 146° |
| 2026-04-30 00:50 | -27.52188 | 153.45086 | 10720 ft | 303 kts | 147° |
| 2026-04-30 00:50 | -27.53947 | 153.46317 | 10461 ft | 295 kts | 146° |
| 2026-04-30 00:51 | -27.55674 | 153.47523 | 10225 ft | 288 kts | 146° |
| 2026-04-30 00:51 | -27.57350 | 153.48692 | 10063 ft | 278 kts | 146° |
| 2026-04-30 00:51 | -27.58967 | 153.49821 | 9986 ft | 266 kts | 146° |
| 2026-04-30 00:51 | -27.60542 | 153.50922 | 9504 ft | 270 kts | 146° |
| 2026-04-30 00:52 | -27.62129 | 153.52033 | 9146 ft | 268 kts | 146° |
| 2026-04-30 00:52 | -27.63708 | 153.53137 | 8820 ft | 267 kts | 146° |
| 2026-04-30 00:52 | -27.65263 | 153.54224 | 8484 ft | 265 kts | 146° |
| 2026-04-30 00:52 | -27.66819 | 153.55313 | 8169 ft | 262 kts | 146° |
| 2026-04-30 00:53 | -27.68378 | 153.56361 | 7845 ft | 261 kts | 153° |
| 2026-04-30 00:53 | -27.70151 | 153.56815 | 7539 ft | 264 kts | 175° |
| 2026-04-30 00:53 | -27.71959 | 153.56508 | 7232 ft | 263 kts | 194° |
| 2026-04-30 00:53 | -27.73642 | 153.55807 | 6949 ft | 254 kts | 196° |
| 2026-04-30 00:54 | -27.75289 | 153.55085 | 6662 ft | 253 kts | 196° |
| 2026-04-30 00:54 | -27.76931 | 153.54362 | 6346 ft | 253 kts | 196° |
| 2026-04-30 00:54 | -27.78572 | 153.53644 | 6045 ft | 252 kts | 196° |
| 2026-04-30 00:54 | -27.80184 | 153.52940 | 5762 ft | 252 kts | 195° |
| 2026-04-30 00:55 | -27.81818 | 153.52231 | 5462 ft | 251 kts | 195° |
| 2026-04-30 00:55 | -27.83443 | 153.51527 | 5172 ft | 250 kts | 195° |
| 2026-04-30 00:55 | -27.86688 | 153.50124 | 4573 ft | 249 kts | 195° |
| 2026-04-30 00:56 | -27.88290 | 153.49431 | 4428 ft | 242 kts | 195° |
| 2026-04-30 00:56 | -27.89840 | 153.48759 | 4307 ft | 234 kts | 195° |
| 2026-04-30 00:56 | -27.91334 | 153.48112 | 4197 ft | 226 kts | 195° |
| 2026-04-30 00:56 | -27.92774 | 153.47487 | 4100 ft | 218 kts | 195° |
| 2026-04-30 00:57 | -27.94171 | 153.46994 | 3931 ft | 207 kts | 179° |
| 2026-04-30 00:57 | -27.95586 | 153.46992 | 3806 ft | 204 kts | 174° |
| 2026-04-30 00:57 | -27.97015 | 153.46989 | 3582 ft | 203 kts | 175° |
| 2026-04-30 00:57 | -27.98391 | 153.46972 | 3396 ft | 193 kts | 175° |
| 2026-04-30 00:58 | -27.99699 | 153.46955 | 3222 ft | 183 kts | 175° |
| 2026-04-30 00:58 | -28.00951 | 153.46939 | 3037 ft | 178 kts | 174° |
| 2026-04-30 00:58 | -28.02163 | 153.46924 | 2805 ft | 170 kts | 174° |
| 2026-04-30 00:58 | -28.03334 | 153.46912 | 2595 ft | 166 kts | 174° |
| 2026-04-30 00:59 | -28.04483 | 153.46900 | 2384 ft | 163 kts | 174° |
| 2026-04-30 00:59 | -28.05611 | 153.46887 | 2170 ft | 161 kts | 175° |
| 2026-04-30 00:59 | -28.06682 | 153.46873 | 1981 ft | 150 kts | 174° |
| 2026-04-30 00:59 | -28.07672 | 153.46859 | 1803 ft | 134 kts | 174° |
| 2026-04-30 01:00 | -28.08551 | 153.46846 | 1580 ft | 119 kts | 174° |
| 2026-04-30 01:00 | -28.09366 | 153.46836 | 1441 ft | 115 kts | 173° |
| 2026-04-30 01:00 | -28.10163 | 153.46829 | 1280 ft | 114 kts | 173° |
| 2026-04-30 01:00 | -28.10887 | 153.47094 | 1155 ft | 112 kts | 144° |
| 2026-04-30 01:01 | -28.11557 | 153.47548 | 1007 ft | 114 kts | 153° |
| 2026-04-30 01:01 | -28.12278 | 153.47987 | 885 ft | 120 kts | 153° |
| 2026-04-30 01:01 | -28.13015 | 153.48430 | 708 ft | 121 kts | 152° |
| 2026-04-30 01:01 | -28.13754 | 153.48884 | 547 ft | 120 kts | 153° |
| 2026-04-30 01:02 | -28.14512 | 153.49343 | 361 ft | 123 kts | 147° |
| 2026-04-30 01:02 | -28.15252 | 153.49821 | 180 ft | 120 kts | 149° |
| 2026-04-30 01:02 | -28.15936 | 153.50262 | 33 ft | 104 kts | 151° |
| 2026-04-30 01:02 | -28.16436 | 153.50574 | 25 ft | 52 kts | 151° |
| 2026-04-30 01:03 | -28.16567 | 153.50708 | 26 ft | 12 kts | 77° |
| 2026-04-30 01:03 | -28.16538 | 153.50772 | 29 ft | 8 kts | 59° |
| 2026-04-30 01:03 | -28.16509 | 153.50828 | 27 ft | 8 kts | 60° |
| 2026-04-30 01:03 | -28.16484 | 153.50884 | 27 ft | 8 kts | 72° |
| 2026-04-30 01:04 | -28.16481 | 153.50941 | 24 ft | 8 kts | 119° |
| 2026-04-30 01:04 | -28.16519 | 153.50982 | 27 ft | 7 kts | 141° |
| 2026-04-30 01:04 | -28.16560 | 153.51017 | 27 ft | 7 kts | 140° |
| 2026-04-30 01:04 | -28.16599 | 153.51051 | 24 ft | 7 kts | 113° |
| 2026-04-30 01:05 | -28.16589 | 153.51083 | 24 ft | 0 kts | 62° |